Al Hoceima, Morocco
Current Conditions -  °F | °C
As of 4:00 PM on Friday 24 Oct 2014 (Local Time) from GMTA Reporting Station
Clear Clear  
Wind Chill: 73°   Ceiling: Unl
Heat Index: 73°   Visibility: 6mi
Dew Point: 64°   Wind: 7mph
Humidity: 73%   Direction: 340°NNW
Pressure: 30"   Gusts: NA
Location:  35.26°N, 3.94°W
Report Text: GMTA 241500Z 34006KT CAVOK 23/18 Q1016 NOSIG
Loading
Personal Weather Stations






























Interactive Weather Map
Tropical Storm Tracking
New forecast layout! Learn more

10-Day Weather Forecast

Advertisements
Track Severe Weather on mobile